Time;durP1;ratioP1;P1;durP2;ratioP2;P2;SDS_P1;SDS_P2;PMS_P1;PMS_P2;Temp;Humidity;BMP_temperature;BMP_pressure;BME280_temperature;BME280_humidity;BME280_pressure;Samples;Min_cycle;Max_cycle;Signal;HPM_P1;HPM_P2
2020/12/05 00:02:20;;;;;;;33.92;19.63;;;;;;;3.68;72.37;98037.88;5048047;28;20449;-77
2020/12/05 00:04:46;;;;;;;32.85;19.02;;;;;;;3.71;73.09;98035.94;5047863;28;20048;-78
2020/12/05 00:07:14;;;;;;;33.53;18.60;;;;;;;3.72;72.42;98036.78;5044637;28;20041;-79
2020/12/05 00:09:40;;;;;;;35.72;19.25;;;;;;;3.68;73.41;98025.63;5040107;28;20053;-76
2020/12/05 00:12:09;;;;;;;34.65;19.45;;;;;;;3.70;73.28;98039.47;5045277;28;20428;-76
2020/12/05 00:14:53;;;;;;;35.30;19.58;;;;;;;3.71;73.38;98041.16;5045199;28;20110;-77
2020/12/05 00:17:19;;;;;;;37.83;19.67;;;;;;;3.68;74.02;98030.88;5042135;28;20131;-77
2020/12/05 00:19:45;;;;;;;34.33;18.65;;;;;;;3.71;73.92;98035.09;5046814;28;20520;-78
2020/12/05 00:22:16;;;;;;;35.63;20.00;;;;;;;3.65;75.11;98025.81;5042524;28;20144;-77
2020/12/05 00:24:42;;;;;;;33.47;19.15;;;;;;;3.67;75.74;98021.31;5044656;28;20483;-76
2020/12/05 00:27:08;;;;;;;36.22;20.30;;;;;;;3.65;76.17;98020.56;5047186;28;20136;-77
2020/12/05 00:29:35;;;;;;;37.60;19.77;;;;;;;3.57;76.36;98027.19;5046716;28;20049;-77
2020/12/05 00:32:01;;;;;;;38.35;20.58;;;;;;;3.47;76.96;98027.69;5038703;28;20148;-81
2020/12/05 00:34:27;;;;;;;37.17;20.13;;;;;;;3.45;78.26;98041.81;5044202;28;20055;-76
2020/12/05 00:36:54;;;;;;;37.97;20.67;;;;;;;3.44;78.49;98056.66;5045311;28;20416;-79
2020/12/05 00:39:21;;;;;;;39.20;21.38;;;;;;;3.42;79.04;98065.50;5045758;28;20140;-79
2020/12/05 00:41:47;;;;;;;36.70;20.60;;;;;;;3.41;79.09;98067.28;5042078;28;20053;-77
2020/12/05 00:44:13;;;;;;;34.78;20.20;;;;;;;3.47;79.56;98068.69;5045829;28;20033;-78
2020/12/05 00:46:41;;;;;;;40.92;21.50;;;;;;;3.52;79.67;98071.91;5044379;28;20044;-77
2020/12/05 00:49:07;;;;;;;37.65;20.48;;;;;;;3.56;79.99;98062.97;5043518;28;20063;-76
2020/12/05 00:51:34;;;;;;;38.67;21.05;;;;;;;3.59;79.55;98057.56;5044134;28;20041;-79
2020/12/05 00:54:00;;;;;;;36.70;20.70;;;;;;;3.62;80.08;98067.84;5045724;28;20052;-77
2020/12/05 00:56:27;;;;;;;36.83;21.40;;;;;;;3.64;80.37;98059.91;5045908;28;20055;-78
2020/12/05 00:58:53;;;;;;;34.70;20.33;;;;;;;3.55;79.98;98050.81;5045872;28;20392;-78
2020/12/05 01:01:20;;;;;;;35.35;20.67;;;;;;;3.50;79.80;98048.44;5043172;28;20844;-77
2020/12/05 01:03:46;;;;;;;36.08;20.63;;;;;;;3.48;79.92;98057.31;5044460;28;20428;-77
2020/12/05 01:06:14;;;;;;;38.30;22.05;;;;;;;3.47;80.15;98055.59;5043854;28;20520;-78
2020/12/05 01:08:44;;;;;;;34.13;19.70;;;;;;;3.50;80.68;98071.16;5043356;28;20051;-76
2020/12/05 01:11:19;;;;;;;41.55;20.80;;;;;;;3.45;80.54;98070.59;5042503;28;20049;-76
2020/12/05 01:13:49;;;;;;;34.67;20.60;;;;;;;3.42;81.52;98082.06;5046602;28;20043;-79
2020/12/05 01:16:16;;;;;;;36.85;20.92;;;;;;;3.39;81.86;98076.13;5044092;28;20046;-77
2020/12/05 01:18:44;;;;;;;36.30;21.08;;;;;;;3.32;80.82;98075.63;5043208;28;20041;-77
2020/12/05 01:21:14;;;;;;;36.65;21.23;;;;;;;3.31;81.05;98089.63;5049142;28;20055;-78
2020/12/05 01:23:42;;;;;;;38.42;20.85;;;;;;;3.31;81.76;98089.63;5054963;28;20059;-78
2020/12/05 01:26:09;;;;;;;38.03;21.60;;;;;;;3.34;82.07;98086.00;5048920;28;20545;-78
2020/12/05 01:28:36;;;;;;;36.63;20.83;;;;;;;3.40;82.02;98083.06;5046165;28;20040;-77
2020/12/05 01:31:04;;;;;;;39.85;21.63;;;;;;;3.39;82.11;98086.59;5043996;28;20575;-77
2020/12/05 01:33:31;;;;;;;37.40;21.40;;;;;;;3.36;82.94;98081.53;5046496;28;20073;-77
2020/12/05 01:35:59;;;;;;;37.97;21.55;;;;;;;3.32;82.48;98093.06;5044091;28;20503;-77
2020/12/05 01:38:26;;;;;;;36.17;21.15;;;;;;;3.27;82.77;98102.97;5044058;28;20502;-77
2020/12/05 01:40:57;;;;;;;40.17;21.60;;;;;;;3.15;82.97;98118.38;5040875;28;20428;-77
2020/12/05 01:43:25;;;;;;;42.53;23.88;;;;;;;3.04;83.81;98130.31;5046999;28;20461;-77
2020/12/05 01:45:52;;;;;;;38.75;21.75;;;;;;;2.94;84.69;98134.34;5045391;28;20072;-77
2020/12/05 01:48:19;;;;;;;42.08;24.00;;;;;;;2.86;85.24;98134.75;5044784;28;20045;-77
2020/12/05 01:50:47;;;;;;;42.47;24.50;;;;;;;2.81;86.14;98126.31;5044026;28;20173;-77
2020/12/05 01:53:16;;;;;;;40.95;23.63;;;;;;;2.77;86.63;98127.38;5047082;28;20059;-78
2020/12/05 01:55:47;;;;;;;44.70;24.60;;;;;;;2.80;86.49;98129.84;5046215;28;20048;-76
2020/12/05 01:58:14;;;;;;;43.72;24.42;;;;;;;2.77;86.34;98130.00;5049158;28;20079;-77
2020/12/05 02:00:43;;;;;;;42.58;22.52;;;;;;;2.66;85.39;98133.19;5049369;28;20048;-78
2020/12/05 02:03:14;;;;;;;41.42;21.77;;;;;;;2.57;85.46;98138.84;5041777;28;20168;-77
2020/12/05 02:06:06;;;;;;;40.75;22.52;;;;;;;2.51;85.89;98144.41;5044264;28;20049;-81
2020/12/05 02:08:54;;;;;;;41.25;22.75;;;;;;;2.52;86.53;98134.81;5045704;28;20057;-76
2020/12/05 02:11:27;;;;;;;40.65;22.40;;;;;;;2.55;86.39;98139.84;5050092;28;20052;-78
2020/12/05 02:14:01;;;;;;;39.28;22.27;;;;;;;2.52;86.42;98117.31;5057606;28;20064;-82
2020/12/05 02:16:28;;;;;;;45.38;22.65;;;;;;;2.50;85.83;98121.81;5059578;28;20077;-79
2020/12/05 02:18:57;;;;;;;39.65;22.42;;;;;;;2.45;86.69;98119.41;5045946;28;20051;-76
2020/12/05 02:21:27;;;;;;;42.08;23.73;;;;;;;2.40;86.69;98118.78;5047387;28;20056;-78
2020/12/05 02:23:58;;;;;;;40.22;22.98;;;;;;;2.35;87.08;98119.97;5049492;28;20045;-76
2020/12/05 02:26:27;;;;;;;42.90;23.73;;;;;;;2.26;86.59;98121.25;5049666;28;20053;-77
2020/12/05 02:28:54;;;;;;;42.17;23.17;;;;;;;2.21;86.79;98125.84;5063555;28;20048;-78
2020/12/05 02:31:20;;;;;;;42.17;23.55;;;;;;;2.15;87.11;98118.34;5055897;28;20079;-78
2020/12/05 02:33:46;;;;;;;40.28;22.58;;;;;;;2.11;87.61;98129.84;5057690;28;20069;-78
2020/12/05 02:36:13;;;;;;;44.63;24.55;;;;;;;2.15;88.26;98135.78;5046455;28;20120;-77
2020/12/05 02:39:00;;;;;;;47.38;24.58;;;;;;;2.10;88.50;98144.66;5041893;28;20045;-77
2020/12/05 02:41:28;;;;;;;48.88;23.95;;;;;;;2.10;88.83;98155.09;5044538;28;20148;-81
2020/12/05 02:43:54;;;;;;;46.35;24.67;;;;;;;2.05;88.67;98144.03;5045343;28;20499;-77
2020/12/05 02:46:21;;;;;;;45.05;24.92;;;;;;;2.06;89.59;98137.03;5041102;28;20064;-77
2020/12/05 02:48:47;;;;;;;45.10;24.63;;;;;;;2.09;89.36;98156.03;5045585;28;20053;-77
2020/12/05 02:51:14;;;;;;;49.03;24.73;;;;;;;2.09;90.02;98152.56;5040673;28;20488;-79
2020/12/05 02:53:40;;;;;;;47.83;25.15;;;;;;;2.11;89.77;98162.03;5040540;28;20576;-78
2020/12/05 02:56:07;;;;;;;46.50;24.90;;;;;;;2.08;89.26;98159.56;5042428;28;20627;-77
2020/12/05 02:58:33;;;;;;;49.15;25.00;;;;;;;2.07;89.59;98173.53;5040169;28;20045;-78
2020/12/05 03:00:59;;;;;;;47.38;24.60;;;;;;;2.02;89.78;98179.91;5047571;28;20049;-79
2020/12/05 03:03:26;;;;;;;50.38;26.65;;;;;;;1.96;89.96;98193.22;5045874;28;20049;-76
2020/12/05 03:05:53;;;;;;;54.13;26.90;;;;;;;1.90;90.17;98196.13;5048436;28;20671;-77
2020/12/05 03:08:19;;;;;;;49.67;26.92;;;;;;;1.86;91.05;98194.59;5042541;28;20145;-77
2020/12/05 03:10:45;;;;;;;52.10;27.02;;;;;;;1.89;91.97;98187.44;5047510;28;20156;-76
2020/12/05 03:13:12;;;;;;;52.72;25.67;;;;;;;1.92;91.63;98189.06;5045287;28;20045;-78
2020/12/05 03:15:38;;;;;;;50.35;26.75;;;;;;;1.91;91.34;98187.38;5043137;28;20506;-76
2020/12/05 03:18:04;;;;;;;48.40;26.13;;;;;;;1.92;91.37;98186.47;5046208;28;20053;-77
2020/12/05 03:20:31;;;;;;;46.70;25.52;;;;;;;1.93;92.00;98173.34;5045805;28;20064;-76
2020/12/05 03:22:57;;;;;;;48.47;25.67;;;;;;;1.98;91.75;98171.38;5045737;28;20419;-77
2020/12/05 03:25:23;;;;;;;50.55;26.23;;;;;;;1.98;91.83;98180.97;5043006;28;20940;-76
2020/12/05 03:27:50;;;;;;;46.85;24.42;;;;;;;1.99;91.86;98198.31;5044268;28;20048;-77
2020/12/05 03:30:16;;;;;;;48.13;25.02;;;;;;;1.98;92.08;98220.13;5048851;28;20130;-79
2020/12/05 03:32:43;;;;;;;50.65;26.33;;;;;;;1.92;91.98;98229.06;5044601;28;20055;-77
2020/12/05 03:35:10;;;;;;;57.45;26.65;;;;;;;1.85;92.60;98243.34;5044955;28;20050;-78
2020/12/05 03:37:36;;;;;;;56.83;28.17;;;;;;;1.79;92.88;98245.38;5047534;28;20439;-76
2020/12/05 03:40:04;;;;;;;60.60;29.58;;;;;;;1.73;93.52;98239.50;5044245;28;20063;-76
2020/12/05 03:42:31;;;;;;;59.33;29.77;;;;;;;1.75;93.84;98247.25;5046568;28;20126;-75
2020/12/05 03:44:58;;;;;;;57.58;27.23;;;;;;;1.75;94.24;98261.16;5042922;28;20048;-76
2020/12/05 03:47:24;;;;;;;58.88;29.25;;;;;;;1.76;94.10;98260.22;5042140;28;20045;-78
2020/12/05 03:49:51;;;;;;;56.80;27.85;;;;;;;1.79;94.02;98263.63;5042515;28;20547;-78
2020/12/05 03:52:17;;;;;;;58.38;28.83;;;;;;;1.85;94.20;98273.78;5040089;28;20060;-75
2020/12/05 03:54:44;;;;;;;65.05;30.30;;;;;;;1.92;94.64;98269.97;5044877;28;20056;-77
2020/12/05 03:57:10;;;;;;;61.47;28.13;;;;;;;1.94;94.31;98278.59;5042624;28;20049;-77
2020/12/05 03:59:37;;;;;;;59.50;27.80;;;;;;;1.93;94.90;98277.75;5045037;28;20128;-81
2020/12/05 04:02:03;;;;;;;58.97;28.98;;;;;;;1.94;95.06;98273.38;5043827;28;20708;-76
2020/12/05 04:04:31;;;;;;;61.58;28.63;;;;;;;1.93;95.24;98289.94;5043125;28;20045;-78
2020/12/05 04:06:58;;;;;;;62.15;27.90;;;;;;;1.93;94.78;98292.53;5048642;28;20407;-77
2020/12/05 04:09:24;;;;;;;56.47;27.23;;;;;;;1.94;95.13;98289.03;5040844;28;20057;-75
2020/12/05 04:11:51;;;;;;;55.42;27.65;;;;;;;2.07;94.66;98301.44;5045857;28;20053;-77
2020/12/05 04:14:17;;;;;;;51.97;25.83;;;;;;;2.15;93.99;98306.31;5036730;28;20060;-77
2020/12/05 04:16:44;;;;;;;51.05;26.92;;;;;;;2.14;93.13;98309.00;5045111;28;20040;-78
2020/12/05 04:19:12;;;;;;;53.78;26.50;;;;;;;2.06;92.69;98312.78;5044876;28;20082;-76
2020/12/05 04:21:39;;;;;;;56.83;27.60;;;;;;;1.98;93.35;98316.69;5043332;28;20045;-79
2020/12/05 04:24:05;;;;;;;57.25;27.55;;;;;;;1.97;93.29;98321.06;5048010;28;20052;-80
2020/12/05 04:26:31;;;;;;;63.45;29.00;;;;;;;1.90;94.31;98324.00;5043343;28;20369;-80
2020/12/05 04:28:58;;;;;;;60.38;28.73;;;;;;;1.87;94.34;98316.34;5038258;28;20057;-76
2020/12/05 04:31:24;;;;;;;60.92;29.60;;;;;;;1.92;94.70;98315.19;5045498;28;20049;-79
2020/12/05 04:33:51;;;;;;;56.80;28.85;;;;;;;1.89;94.84;98323.16;5040912;28;20045;-77
2020/12/05 04:36:17;;;;;;;57.85;28.25;;;;;;;1.93;95.15;98329.09;5047053;28;20048;-79
2020/12/05 04:38:43;;;;;;;59.72;30.13;;;;;;;1.92;95.06;98324.78;5042247;28;20163;-75
2020/12/05 04:41:10;;;;;;;63.72;29.42;;;;;;;1.86;94.66;98322.47;5042675;28;20120;-76
2020/12/05 04:43:36;;;;;;;59.17;30.20;;;;;;;1.83;95.07;98344.31;5043285;28;20041;-76
2020/12/05 04:46:03;;;;;;;63.97;29.88;;;;;;;1.77;95.00;98355.88;5041031;28;20374;-76
2020/12/05 04:48:31;;;;;;;70.38;31.10;;;;;;;1.74;95.50;98371.66;5045233;28;20045;-75
2020/12/05 04:51:03;;;;;;;63.70;30.98;;;;;;;1.72;95.61;98372.66;5043677;28;20057;-78
2020/12/05 04:53:31;;;;;;;63.63;31.05;;;;;;;1.71;95.33;98378.78;5040636;28;20836;-76
2020/12/05 04:55:59;;;;;;;65.97;30.73;;;;;;;1.73;95.46;98366.53;5045068;28;20052;-77
2020/12/05 04:58:26;;;;;;;61.05;28.83;;;;;;;1.77;95.58;98358.47;5036703;28;20077;-76
2020/12/05 05:00:57;;;;;;;69.13;31.90;;;;;;;1.70;95.70;98364.91;5048239;28;20127;-78
2020/12/05 05:03:26;;;;;;;;;;;;;;;1.73;95.70;98379.56;5045595;28;20068;-76
2020/12/05 05:05:56;;;;;;;68.30;29.95;;;;;;;1.74;95.67;98374.25;5051416;28;20417;-76
2020/12/05 05:08:28;;;;;;;60.95;28.67;;;;;;;1.86;96.12;98359.00;5048294;28;20140;-76
2020/12/05 05:11:11;;;;;;;58.60;28.70;;;;;;;1.92;95.63;98358.72;5041642;28;20059;-78
2020/12/05 05:13:59;;;;;;;56.58;28.23;;;;;;;1.91;95.49;98367.47;5043038;28;20045;-77
2020/12/05 05:16:28;;;;;;;61.42;29.55;;;;;;;1.91;94.80;98355.25;5046340;28;20385;-75
2020/12/05 05:18:57;;;;;;;54.15;28.85;;;;;;;2.00;95.18;98339.19;5040005;28;20077;-78
2020/12/05 05:21:40;;;;;;;58.72;28.25;;;;;;;2.07;94.88;98337.13;5042248;28;20128;-76
2020/12/05 05:24:11;;;;;;;56.00;27.42;;;;;;;2.05;94.73;98365.06;5042072;28;20059;-75
2020/12/05 05:26:38;;;;;;;65.20;30.05;;;;;;;1.96;94.67;98400.28;5040460;28;20049;-77
2020/12/05 05:29:04;;;;;;;59.08;28.80;;;;;;;1.90;94.74;98412.75;5044531;28;20887;-75
2020/12/05 05:31:54;;;;;;;63.30;29.52;;;;;;;1.88;95.05;98418.06;5035248;28;20045;-75
2020/12/05 05:34:22;;;;;;;67.30;30.08;;;;;;;1.92;95.40;98426.56;5043832;28;20057;-78
2020/12/05 05:36:50;;;;;;;64.70;28.38;;;;;;;1.96;95.67;98452.50;5051972;28;20076;-77
2020/12/05 05:39:18;;;;;;;62.20;30.30;;;;;;;1.95;95.86;98476.03;5050437;28;20053;-75
2020/12/05 05:41:50;;;;;;;69.43;30.83;;;;;;;1.98;95.90;98515.06;5044069;28;20128;-77
2020/12/05 05:44:27;;;;;;;64.40;32.08;;;;;;;1.97;95.90;98524.66;5045911;28;20045;-76
2020/12/05 05:46:55;;;;;;;67.35;32.28;;;;;;;2.00;96.16;98521.09;5046156;28;20115;-80
2020/12/05 05:49:32;;;;;;;68.65;32.38;;;;;;;1.99;96.47;98529.81;5047912;28;20152;-77
2020/12/05 05:52:00;;;;;;;71.13;31.58;;;;;;;1.96;96.48;98525.56;5044541;28;20060;-79
2020/12/05 05:54:33;;;;;;;66.18;30.88;;;;;;;2.02;96.39;98529.69;5058012;28;20121;-77
2020/12/05 05:57:04;;;;;;;66.25;30.67;;;;;;;2.09;96.46;98524.13;5057499;28;20037;-76
2020/12/05 05:59:33;;;;;;;64.15;31.17;;;;;;;2.13;96.32;98530.09;5050324;28;20049;-77
2020/12/05 06:02:01;;;;;;;66.70;31.08;;;;;;;2.13;96.48;98537.06;5047257;28;20044;-78
2020/12/05 06:04:30;;;;;;;59.60;31.08;;;;;;;2.08;96.71;98530.28;5045532;28;20056;-77
2020/12/05 06:06:59;;;;;;;63.67;30.23;;;;;;;2.13;96.54;98531.84;5041515;28;20064;-77
2020/12/05 06:09:47;;;;;;;65.97;30.88;;;;;;;2.15;96.48;98517.81;5039643;28;21020;-77
2020/12/05 06:12:22;;;;;;;63.78;30.23;;;;;;;2.25;96.10;98506.03;5039750;28;20055;-76
2020/12/05 06:14:52;;;;;;;61.42;30.10;;;;;;;2.32;96.22;98512.72;5042639;28;20060;-77
2020/12/05 06:17:21;;;;;;;61.58;30.50;;;;;;;2.35;95.67;98515.19;5043326;28;20349;-76
2020/12/05 06:19:50;;;;;;;62.40;30.20;;;;;;;2.37;95.28;98510.72;5043624;28;20049;-78
2020/12/05 06:22:42;;;;;;;60.20;29.95;;;;;;;2.41;95.30;98521.91;5044042;28;20044;-77
2020/12/05 06:25:15;;;;;;;62.50;30.95;;;;;;;2.45;95.09;98521.72;5037763;28;20195;-76
2020/12/05 06:27:44;;;;;;;61.85;31.33;;;;;;;2.51;95.43;98519.75;5041020;28;20056;-78
2020/12/05 06:30:11;;;;;;;67.18;31.50;;;;;;;2.53;95.07;98512.66;5042576;28;20053;-78
2020/12/05 06:32:43;;;;;;;63.13;31.48;;;;;;;2.55;95.12;98518.66;5046316;28;20055;-77
2020/12/05 06:35:21;;;;;;;63.38;31.23;;;;;;;2.62;95.34;98534.03;5044804;28;20048;-77
2020/12/05 06:37:53;;;;;;;64.15;30.35;;;;;;;2.58;94.90;98539.44;5045953;28;20052;-77
2020/12/05 06:40:20;;;;;;;68.15;31.08;;;;;;;2.60;95.23;98561.97;5047322;28;21009;-77
2020/12/05 06:42:49;;;;;;;62.50;29.88;;;;;;;2.62;94.71;98569.75;5049739;28;20045;-76
2020/12/05 06:45:28;;;;;;;69.72;33.03;;;;;;;2.66;95.47;98571.34;5040877;28;20048;-76
2020/12/05 06:48:11;;;;;;;73.13;34.15;;;;;;;2.69;95.31;98592.06;5045960;28;20045;-79
2020/12/05 06:50:39;;;;;;;80.93;34.60;;;;;;;2.66;95.98;98602.69;5043258;28;20071;-77
2020/12/05 06:53:21;;;;;;;74.63;34.05;;;;;;;2.62;95.96;98596.75;5053744;28;20036;-75
2020/12/05 06:55:49;;;;;;;72.55;33.45;;;;;;;2.68;95.70;98591.22;5068053;28;20187;-82
2020/12/05 06:58:24;;;;;;;79.32;35.28;;;;;;;2.70;95.96;98588.56;5067371;28;20107;-78
2020/12/05 07:00:50;;;;;;;76.70;36.22;;;;;;;2.66;95.54;98587.00;5061978;28;20040;-78
2020/12/05 07:03:27;;;;;;;86.35;37.15;;;;;;;2.64;96.03;98588.84;5055557;28;20059;-77
2020/12/05 07:05:54;;;;;;;82.25;35.33;;;;;;;2.65;95.84;98590.53;5051372;28;20055;-78
2020/12/05 07:08:36;;;;;;;80.63;36.05;;;;;;;2.68;96.35;98612.13;5054847;28;20120;-79
2020/12/05 07:11:16;;;;;;;84.32;37.53;;;;;;;2.72;96.56;98633.75;5059651;28;20057;-80
2020/12/05 07:13:50;;;;;;;76.78;36.95;;;;;;;2.73;96.24;98648.53;5068032;28;20056;-78
2020/12/05 07:16:22;;;;;;;82.93;36.92;;;;;;;2.75;96.13;98647.56;5059163;28;20049;-76
2020/12/05 07:18:52;;;;;;;83.20;35.72;;;;;;;2.84;96.43;98641.06;5043221;28;20037;-77
2020/12/05 07:21:19;;;;;;;77.53;35.88;;;;;;;2.90;96.28;98645.19;5046197;28;20060;-78
2020/12/05 07:23:46;;;;;;;85.93;36.45;;;;;;;2.90;96.36;98651.28;5043120;28;20485;-77
2020/12/05 07:26:14;;;;;;;83.32;36.38;;;;;;;2.88;96.41;98658.31;5050416;28;20056;-77
2020/12/05 07:28:59;;;;;;;84.93;36.58;;;;;;;2.86;96.10;98661.91;5058563;28;20505;-76
2020/12/05 07:31:25;;;;;;;85.60;37.20;;;;;;;2.83;95.97;98656.84;5059245;28;20045;-76
2020/12/05 07:33:53;;;;;;;84.13;37.17;;;;;;;2.83;96.43;98669.91;5060653;28;20055;-78
2020/12/05 07:36:19;;;;;;;89.55;37.63;;;;;;;2.81;96.82;98691.75;5057410;28;20063;-78
2020/12/05 07:38:46;;;;;;;84.97;37.97;;;;;;;2.81;96.61;98709.19;5058473;28;20199;-77
2020/12/05 07:41:20;;;;;;;90.35;37.85;;;;;;;2.83;97.02;98716.03;5052916;28;20135;-77
2020/12/05 07:43:48;;;;;;;92.20;37.97;;;;;;;2.85;96.54;98712.50;5064126;28;20071;-76
2020/12/05 07:46:15;;;;;;;88.20;37.72;;;;;;;2.87;96.88;98710.69;5063622;28;20803;-80
2020/12/05 07:48:43;;;;;;;88.75;37.58;;;;;;;2.86;96.69;98711.59;5060584;28;20112;-78
2020/12/05 07:51:15;;;;;;;95.63;38.88;;;;;;;2.90;97.31;98713.16;5066665;28;20045;-78
2020/12/05 07:53:42;;;;;;;87.25;37.90;;;;;;;2.99;97.19;98721.44;5063096;28;20067;-77
2020/12/05 07:56:17;;;;;;;87.75;38.20;;;;;;;3.05;97.44;98709.88;5054548;28;20052;-77
2020/12/05 07:58:55;;;;;;;87.80;38.53;;;;;;;3.15;97.05;98690.25;5047920;28;20376;-77
2020/12/05 08:01:43;;;;;;;86.80;37.83;;;;;;;3.23;96.58;98708.25;5050089;28;20136;-77
2020/12/05 08:04:28;;;;;;;86.00;36.53;;;;;;;3.28;96.25;98729.81;5042135;28;20401;-78
2020/12/05 08:07:30;;;;;;;81.28;35.67;;;;;;;3.25;96.18;98724.72;5044778;28;20056;-79
2020/12/05 08:09:59;;;;;;;87.45;36.45;;;;;;;3.35;96.42;98744.31;5040873;28;20389;-76
2020/12/05 08:12:40;;;;;;;88.85;37.28;;;;;;;3.64;98.62;98764.81;5042102;28;20063;-77
2020/12/05 08:15:07;;;;;;;93.22;38.67;;;;;;;3.56;98.26;98764.31;5039205;28;20053;-77
2020/12/05 08:17:37;;;;;;;80.13;35.47;;;;;;;3.51;97.61;98756.66;5045677;28;20051;-76
2020/12/05 08:20:04;;;;;;;76.27;36.00;;;;;;;3.49;96.64;98740.16;5042659;28;20068;-77
2020/12/05 08:22:31;;;;;;;78.32;36.30;;;;;;;3.46;96.33;98737.69;5045169;28;20492;-76
2020/12/05 08:24:58;;;;;;;76.28;34.38;;;;;;;3.50;95.92;98744.50;5042679;28;20076;-78
2020/12/05 08:27:25;;;;;;;78.28;35.20;;;;;;;3.54;95.40;98745.22;5037886;28;20052;-78
2020/12/05 08:29:54;;;;;;;79.28;36.08;;;;;;;3.56;95.31;98737.28;5043831;28;20069;-77
2020/12/05 08:32:22;;;;;;;75.28;35.30;;;;;;;3.51;95.31;98746.19;5040245;28;20067;-77
2020/12/05 08:34:49;;;;;;;81.05;35.58;;;;;;;3.57;94.97;98749.47;5045048;28;20484;-77
2020/12/05 08:37:23;;;;;;;78.93;36.08;;;;;;;3.60;94.55;98759.81;5040092;28;20044;-77
2020/12/05 08:39:53;;;;;;;76.85;33.55;;;;;;;3.53;95.04;98767.06;5044148;28;20057;-77
2020/12/05 08:42:19;;;;;;;80.95;36.05;;;;;;;3.50;94.96;98770.66;5046835;28;20624;-79
2020/12/05 08:44:46;;;;;;;86.65;38.15;;;;;;;3.52;95.02;98781.06;5036193;28;20056;-77
2020/12/05 08:47:13;;;;;;;82.15;36.33;;;;;;;3.58;95.92;98780.81;5044110;28;20057;-76
2020/12/05 08:49:42;;;;;;;88.53;38.42;;;;;;;3.62;96.11;98768.44;5047848;28;20060;-77
2020/12/05 08:52:10;;;;;;;85.25;37.08;;;;;;;3.63;96.08;98765.72;5041591;28;20113;-78
2020/12/05 08:54:49;;;;;;;77.40;33.88;;;;;;;3.65;95.84;98787.44;5044615;28;20063;-77
2020/12/05 08:57:16;;;;;;;76.28;35.67;;;;;;;3.71;95.54;98781.94;5043160;28;20064;-78
2020/12/05 08:59:43;;;;;;;80.18;34.40;;;;;;;3.76;95.79;98781.75;5040664;28;20118;-79
2020/12/05 09:02:11;;;;;;;70.35;33.28;;;;;;;3.82;95.60;98791.94;5037568;28;20049;-76
2020/12/05 09:04:38;;;;;;;71.97;33.88;;;;;;;3.83;95.01;98788.41;5045022;28;20049;-77
2020/12/05 09:07:17;;;;;;;68.47;33.55;;;;;;;3.81;94.71;98798.94;5040896;28;20082;-77
2020/12/05 09:09:46;;;;;;;70.55;33.15;;;;;;;3.83;95.76;98798.88;5042942;28;20059;-77
2020/12/05 09:12:18;;;;;;;81.97;35.20;;;;;;;3.79;95.77;98781.59;5042564;28;20049;-76
2020/12/05 09:14:50;;;;;;;77.50;33.38;;;;;;;3.87;95.64;98797.81;5044111;28;20059;-75
2020/12/05 09:17:34;;;;;;;76.20;33.38;;;;;;;3.95;95.40;98793.06;5041532;28;20176;-76
2020/12/05 09:20:15;;;;;;;74.05;34.08;;;;;;;4.01;95.44;98794.56;5043047;28;20143;-76
2020/12/05 09:22:49;;;;;;;71.50;34.25;;;;;;;3.99;95.49;98801.66;5045927;28;20144;-77
2020/12/05 09:25:36;;;;;;;81.78;34.45;;;;;;;3.97;95.26;98801.72;5040546;28;20405;-78
2020/12/05 09:28:08;;;;;;;71.20;33.72;;;;;;;3.98;95.38;98808.66;5046890;28;20528;-76
2020/12/05 09:30:35;;;;;;;77.35;35.28;;;;;;;4.02;96.13;98827.69;5041873;28;20037;-76
2020/12/05 09:33:13;;;;;;;73.78;34.80;;;;;;;4.09;96.36;98829.13;5041400;28;20052;-77
2020/12/05 09:35:39;;;;;;;70.63;32.80;;;;;;;4.14;96.43;98829.75;5044454;28;20048;-76
2020/12/05 09:38:06;;;;;;;68.18;33.97;;;;;;;4.19;96.05;98846.97;5043273;28;20043;-77
2020/12/05 09:40:32;;;;;;;66.30;31.92;;;;;;;4.17;95.79;98840.09;5040983;28;20116;-77
2020/12/05 09:42:59;;;;;;;65.50;32.78;;;;;;;4.19;95.53;98833.88;5048557;28;22543;-79
2020/12/05 09:45:26;;;;;;;64.85;32.70;;;;;;;4.18;95.73;98828.69;5051738;28;20643;-76
2020/12/05 09:47:54;;;;;;;65.38;32.72;;;;;;;4.15;96.18;98828.84;5058015;28;20045;-78
2020/12/05 09:50:22;;;;;;;65.72;32.40;;;;;;;4.16;95.72;98817.44;5066897;28;20083;-75
2020/12/05 09:52:49;;;;;;;68.72;33.15;;;;;;;4.15;96.03;98818.34;5064120;28;20456;-76
2020/12/05 09:55:16;;;;;;;63.65;32.50;;;;;;;4.14;96.43;98830.59;5055253;28;20044;-76
2020/12/05 09:57:43;;;;;;;68.00;32.83;;;;;;;4.15;96.34;98823.59;5052780;28;20041;-75
2020/12/05 10:00:12;;;;;;;69.43;32.15;;;;;;;4.15;96.61;98815.75;5053034;28;20037;-77
2020/12/05 10:02:41;;;;;;;66.03;32.42;;;;;;;4.16;96.58;98812.19;5054296;28;20100;-77
2020/12/05 10:05:09;;;;;;;68.32;33.42;;;;;;;4.13;96.41;98817.56;5055902;28;20041;-77
2020/12/05 10:07:36;;;;;;;65.38;32.47;;;;;;;4.11;95.66;98825.50;5054059;28;20075;-77
2020/12/05 10:10:05;;;;;;;71.68;34.78;;;;;;;4.10;95.82;98839.50;5056989;28;20049;-77
2020/12/05 10:12:32;;;;;;;67.55;34.35;;;;;;;4.07;94.79;98844.06;5050510;28;20482;-76
2020/12/05 10:14:59;;;;;;;66.10;31.98;;;;;;;3.99;94.54;98840.94;5047903;28;20062;-76
2020/12/05 10:17:26;;;;;;;71.00;33.92;;;;;;;3.99;94.98;98840.94;5040652;28;20049;-75
2020/12/05 10:19:52;;;;;;;64.95;33.10;;;;;;;3.98;95.26;98836.59;5045911;28;20063;-78
2020/12/05 10:22:20;;;;;;;63.83;32.85;;;;;;;3.99;95.25;98836.53;5044683;28;20103;-77
2020/12/05 10:24:47;;;;;;;67.80;32.95;;;;;;;4.02;95.94;98836.41;5041968;28;20077;-77
2020/12/05 10:27:14;;;;;;;65.15;32.70;;;;;;;4.03;95.40;98837.25;5042595;28;20045;-77
2020/12/05 10:29:41;;;;;;;67.93;33.25;;;;;;;4.02;95.67;98846.88;5044406;28;20064;-76
2020/12/05 10:32:08;;;;;;;66.47;32.28;;;;;;;4.14;96.41;98840.22;5058302;28;20073;-77
2020/12/05 10:34:34;;;;;;;67.00;31.10;;;;;;;4.22;95.54;98832.88;5043654;28;20077;-76
2020/12/05 10:37:00;;;;;;;66.40;33.33;;;;;;;4.27;95.33;98835.28;5041429;28;20349;-79
2020/12/05 10:39:27;;;;;;;47.70;26.63;;;;;;;4.36;94.84;98848.81;5041821;28;20282;-77
2020/12/05 10:41:53;;;;;;;59.58;31.25;;;;;;;4.40;95.03;98853.00;5039606;28;20052;-78
2020/12/05 10:44:20;;;;;;;52.42;27.02;;;;;;;4.48;94.88;98853.47;5036857;28;20152;-79
2020/12/05 10:46:48;;;;;;;44.60;24.73;;;;;;;4.68;95.24;98835.97;5040245;28;20225;-76
2020/12/05 10:49:16;;;;;;;42.60;23.92;;;;;;;4.81;94.65;98835.31;5041214;28;20407;-78
2020/12/05 10:51:42;;;;;;;38.70;22.08;;;;;;;4.94;94.21;98853.91;5039821;28;20046;-77
2020/12/05 10:54:09;;;;;;;37.03;22.63;;;;;;;5.04;93.88;98860.41;5039322;28;20050;-77
2020/12/05 10:56:38;;;;;;;36.72;21.42;;;;;;;5.18;92.91;98836.97;5040553;28;20765;-76
2020/12/05 10:59:05;;;;;;;33.83;20.50;;;;;;;5.35;90.29;98835.28;5041662;28;20049;-78
2020/12/05 11:01:32;;;;;;;29.20;17.67;;;;;;;5.45;90.31;98837.34;5042571;28;20089;-77
2020/12/05 11:03:59;;;;;;;31.83;19.05;;;;;;;5.43;90.53;98838.34;5043196;28;20045;-78
2020/12/05 11:06:26;;;;;;;32.63;20.52;;;;;;;5.43;91.15;98854.09;5045134;28;20045;-75
2020/12/05 11:08:54;;;;;;;31.27;20.13;;;;;;;5.43;91.93;98848.84;5042837;28;20080;-77
2020/12/05 11:11:21;;;;;;;30.55;19.52;;;;;;;5.44;91.44;98847.94;5047228;28;20041;-76
2020/12/05 11:13:48;;;;;;;27.13;17.55;;;;;;;5.42;91.21;98850.63;5042130;28;20061;-76
2020/12/05 11:16:20;;;;;;;28.67;17.60;;;;;;;5.36;91.65;98857.94;5042513;28;20051;-77
2020/12/05 11:18:48;;;;;;;27.98;16.75;;;;;;;5.42;91.71;98852.41;5044645;28;20107;-76
2020/12/05 11:21:15;;;;;;;25.17;15.45;;;;;;;5.44;92.19;98866.31;5046090;28;20083;-76
2020/12/05 11:23:42;;;;;;;22.98;15.02;;;;;;;5.38;91.59;98870.06;5045347;28;20053;-76
2020/12/05 11:26:09;;;;;;;29.45;17.30;;;;;;;5.40;90.98;98859.50;5044874;28;20059;-76
2020/12/05 11:28:35;;;;;;;32.42;20.55;;;;;;;5.44;90.95;98877.66;5050122;28;20056;-76
2020/12/05 11:31:02;;;;;;;38.83;23.80;;;;;;;5.40;90.60;98872.63;5052802;28;20053;-78
2020/12/05 11:33:29;;;;;;;45.92;25.40;;;;;;;5.31;91.21;98876.56;5062563;28;20045;-77
2020/12/05 11:35:55;;;;;;;47.42;27.95;;;;;;;5.16;90.16;98880.81;5064638;28;20104;-76
2020/12/05 11:38:22;;;;;;;46.10;27.85;;;;;;;5.01;90.14;98883.34;5067781;28;20057;-75